Terminal Aerodrome Forecast
Issued by NWS Lake Charles, LA

Home | Current Version | Previous Version | Text Only | Print | Product List | Glossary On
Versions: 1 2 3 4 5 6 7 8 9 10 11 12 13 14 15 16 17 18 19 20 21
000
FTUS44 KLCH 262328
TAFLFT
TAF
KLFT 262328Z 2700/2724 14008KT P6SM SCT025 BKN050
     FM270400 12007KT P6SM SCT007 BKN025
     FM270700 13007KT 4SM BR VCSH OVC007
     FM271500 17007KT P6SM VCSH SCT007 BKN015
     FM271800 19012G18KT P6SM VCTS BKN025CB PROB30 2718/2724 4SM
      -SHRA BKN025=

USA.gov is the U.S. government's official web portal to all federal, state and local government web resources and services.